Time;durP1;ratioP1;P1;durP2;ratioP2;P2;SDS_P1;SDS_P2;PMS_P1;PMS_P2;Temp;Humidity;BMP_temperature;BMP_pressure;BME280_temperature;BME280_humidity;BME280_pressure;Samples;Min_cycle;Max_cycle;Signal;HPM_P1;HPM_P2
2022/10/25 00:00:20;;;;;;;2.15;1.30;;;;;;;21.50;49.99;101021.63;5004588;28;20456;-60
2022/10/25 00:02:45;;;;;;;3.20;0.40;;;;;;;21.51;49.68;101017.84;5004256;28;20102;-60
2022/10/25 00:05:13;;;;;;;7.25;1.23;;;;;;;21.46;50.45;101016.56;5019884;28;20034;-60
2022/10/25 00:07:39;;;;;;;2.28;1.17;;;;;;;21.50;49.77;101024.34;5004229;28;20391;-60
2022/10/25 00:10:04;;;;;;;4.72;0.70;;;;;;;21.50;49.59;101027.09;5003840;28;20041;-60
2022/10/25 00:12:30;;;;;;;2.67;0.50;;;;;;;21.47;49.98;101023.69;5003368;28;20035;-60
2022/10/25 00:14:55;;;;;;;6.03;0.73;;;;;;;21.51;50.69;101024.16;5003716;28;20401;-60
2022/10/25 00:17:21;;;;;;;2.15;0.35;;;;;;;21.53;50.12;101026.66;5004624;28;20128;-60
2022/10/25 00:19:46;;;;;;;4.38;0.73;;;;;;;21.54;49.40;101025.63;5015635;28;20062;-60
2022/10/25 00:22:11;;;;;;;1.83;1.00;;;;;;;21.53;50.12;101015.75;4985820;28;20043;-60
2022/10/25 00:24:37;;;;;;;0.63;0.32;;;;;;;21.51;50.26;101017.84;5000148;28;20447;-60
2022/10/25 00:27:02;;;;;;;10.18;1.50;;;;;;;21.55;49.91;101019.16;4985244;28;20122;-61
2022/10/25 00:29:27;;;;;;;3.47;0.65;;;;;;;21.56;50.22;101023.56;5000211;28;20030;-59
2022/10/25 00:31:53;;;;;;;3.63;0.65;;;;;;;21.57;49.91;101033.44;4985866;28;20030;-60
2022/10/25 00:34:18;;;;;;;3.20;0.60;;;;;;;21.58;49.61;101035.13;4984140;28;20099;-60
2022/10/25 00:36:43;;;;;;;9.23;0.90;;;;;;;21.59;49.82;101032.19;4999616;28;20085;-60
2022/10/25 00:39:09;;;;;;;3.65;0.70;;;;;;;21.59;49.64;101032.19;4984910;28;20046;-60
2022/10/25 00:41:34;;;;;;;5.00;1.13;;;;;;;21.63;49.83;101032.66;4983471;28;20114;-60
2022/10/25 00:44:37;;;;;;;3.75;0.70;;;;;;;21.65;50.01;101038.75;4999552;28;20049;-61
2022/10/25 00:47:17;;;;;;;3.25;0.65;;;;;;;21.64;49.97;101023.41;4984652;28;20033;-60
2022/10/25 00:49:42;;;;;;;1.10;0.50;;;;;;;21.64;50.20;101028.88;4985354;28;20082;-60
2022/10/25 00:52:08;;;;;;;4.50;0.60;;;;;;;21.65;50.28;101022.38;4984762;28;20051;-60
2022/10/25 00:54:41;;;;;;;6.22;0.80;;;;;;;21.64;50.15;101029.72;5000002;28;20385;-60
2022/10/25 00:57:19;;;;;;;2.92;0.75;;;;;;;21.64;50.07;101028.88;4983150;28;20094;-60
2022/10/25 00:59:45;;;;;;;3.80;0.70;;;;;;;21.67;50.04;101050.28;4999376;28;20034;-60
2022/10/25 01:02:11;;;;;;;2.92;0.88;;;;;;;21.65;50.23;101041.47;4983056;28;20121;-60
2022/10/25 01:04:36;;;;;;;2.30;0.43;;;;;;;21.63;50.05;101044.41;4983408;28;20507;-60
2022/10/25 01:07:01;;;;;;;2.72;0.85;;;;;;;21.63;49.37;101046.28;4999864;28;20039;-60
2022/10/25 01:09:30;;;;;;;2.22;0.80;;;;;;;21.62;49.73;101052.75;4983985;28;20045;-60
2022/10/25 01:11:55;;;;;;;4.53;0.52;;;;;;;21.60;50.39;101049.41;4982563;28;20035;-60
2022/10/25 01:14:21;;;;;;;4.90;0.80;;;;;;;21.58;50.00;101046.84;4999715;28;20035;-60
2022/10/25 01:17:18;;;;;;;2.72;0.52;;;;;;;21.57;50.36;101056.09;4999717;28;20480;-59
2022/10/25 01:20:06;;;;;;;4.32;0.63;;;;;;;21.55;49.78;101054.59;4983410;28;20046;-60
2022/10/25 01:22:53;;;;;;;5.22;0.82;;;;;;;21.51;49.71;101054.13;4984684;28;20133;-60
2022/10/25 01:25:55;;;;;;;2.05;0.75;;;;;;;21.49;49.37;101053.50;4965769;28;20086;-60
2022/10/25 01:28:47;;;;;;;7.60;0.65;;;;;;;21.44;50.04;101042.31;4964813;28;20034;-59
2022/10/25 01:31:39;;;;;;;5.80;0.65;;;;;;;21.44;50.01;101048.59;4963861;28;20035;-60
2022/10/25 01:34:16;;;;;;;1.40;0.60;;;;;;;21.43;50.26;101043.38;4980766;28;20031;-60
2022/10/25 01:37:00;;;;;;;8.38;0.82;;;;;;;21.42;49.53;101056.16;5000092;28;20511;-60
2022/10/25 01:39:30;;;;;;;5.13;0.60;;;;;;;21.41;50.12;101057.16;4984101;28;20428;-60
2022/10/25 01:41:59;;;;;;;2.08;0.80;;;;;;;21.42;50.41;101058.03;4998635;28;20129;-61
2022/10/25 01:44:40;;;;;;;4.45;0.63;;;;;;;21.39;49.72;101056.53;4999075;28;20095;-60
2022/10/25 01:47:19;;;;;;;3.88;0.68;;;;;;;21.37;49.58;101061.34;4999486;28;20042;-60
2022/10/25 01:49:52;;;;;;;6.65;1.27;;;;;;;21.36;50.64;101059.66;4999548;28;20022;-60
2022/10/25 01:52:19;;;;;;;2.67;0.80;;;;;;;21.36;50.57;101059.66;4983225;28;20039;-60
2022/10/25 01:54:44;;;;;;;6.55;0.60;;;;;;;21.35;49.75;101060.69;4999720;28;20031;-60
2022/10/25 01:57:24;;;;;;;6.82;0.85;;;;;;;21.36;49.95;101059.66;4984225;28;20059;-60
2022/10/25 02:00:18;;;;;;;5.38;0.90;;;;;;;21.33;50.55;101060.03;4998702;28;20055;-60
2022/10/25 02:03:02;;;;;;;2.95;0.82;;;;;;;21.31;50.01;101059.38;4998130;28;20062;-60
2022/10/25 02:06:09;;;;;;;1.55;0.80;;;;;;;21.29;50.00;101066.91;4998492;28;20505;-59
2022/10/25 02:08:46;;;;;;;9.65;1.40;;;;;;;21.29;50.10;101068.78;4998523;28;20397;-59
2022/10/25 02:11:23;;;;;;;3.20;0.82;;;;;;;21.27;50.16;101074.41;4982385;28;20484;-60
2022/10/25 02:13:53;;;;;;;4.75;0.68;;;;;;;21.27;49.72;101076.31;4983119;28;20023;-60
2022/10/25 02:16:27;;;;;;;1.58;0.50;;;;;;;21.23;49.93;101062.22;4999347;28;20039;-60
2022/10/25 02:18:57;;;;;;;3.60;0.90;;;;;;;21.23;50.59;101064.97;4999126;28;20527;-61
2022/10/25 02:21:23;;;;;;;2.58;0.88;;;;;;;21.25;49.85;101076.50;4982784;28;20062;-60
2022/10/25 02:23:49;;;;;;;2.38;1.00;;;;;;;21.29;49.51;101082.41;4998607;28;20039;-60
2022/10/25 02:26:15;;;;;;;6.03;1.40;;;;;;;21.32;50.27;101082.88;4998723;28;20027;-61
2022/10/25 02:28:41;;;;;;;4.10;1.30;;;;;;;21.29;49.84;101079.69;4999860;28;20041;-60
2022/10/25 02:31:10;;;;;;;5.65;0.90;;;;;;;21.28;50.31;101075.28;4982096;28;20031;-60
2022/10/25 02:33:36;;;;;;;1.63;0.82;;;;;;;21.29;49.58;101086.00;4982023;28;20031;-60
2022/10/25 02:36:17;;;;;;;1.40;0.85;;;;;;;21.29;50.37;101086.00;4997767;28;20053;-60
2022/10/25 02:38:43;;;;;;;3.78;0.88;;;;;;;21.30;50.29;101084.94;4983197;28;20039;-60
2022/10/25 02:41:08;;;;;;;2.75;1.00;;;;;;;21.30;50.08;101086.84;4982158;28;20049;-60
2022/10/25 02:43:34;;;;;;;2.97;0.63;;;;;;;21.32;50.62;101082.88;4982947;28;20031;-60
2022/10/25 02:46:04;;;;;;;3.55;0.60;;;;;;;21.32;49.75;101082.03;4981634;28;20035;-60
2022/10/25 02:48:30;;;;;;;5.47;1.30;;;;;;;21.36;49.70;101086.91;4978602;28;20035;-61
2022/10/25 02:50:55;;;;;;;6.35;1.05;;;;;;;21.38;49.61;101087.53;4964227;28;20605;-59
2022/10/25 02:53:21;;;;;;;4.38;0.63;;;;;;;21.38;50.44;101084.81;4965805;28;20035;-60
2022/10/25 02:55:46;;;;;;;4.05;0.70;;;;;;;21.39;50.10;101086.50;4966838;29;20055;-60
2022/10/25 02:58:11;;;;;;;3.47;0.60;;;;;;;21.42;50.02;101079.84;4967269;28;20046;-60
2022/10/25 03:00:37;;;;;;;5.95;0.63;;;;;;;21.43;50.08;101082.38;4965888;28;20027;-60
2022/10/25 03:03:02;;;;;;;7.07;0.80;;;;;;;21.42;50.18;101083.41;4982097;28;20134;-61
2022/10/25 03:05:28;;;;;;;3.40;0.90;;;;;;;21.38;50.25;101076.63;4967581;28;20378;-59
2022/10/25 03:07:53;;;;;;;4.90;1.48;;;;;;;21.43;50.38;101085.09;4982231;28;20035;-60
2022/10/25 03:10:18;;;;;;;4.57;0.90;;;;;;;21.44;50.51;101084.03;4966543;28;20043;-60
2022/10/25 03:12:44;;;;;;;6.57;0.88;;;;;;;21.46;49.78;101100.22;4950280;28;20568;-60
2022/10/25 03:15:09;;;;;;;3.08;1.02;;;;;;;21.46;49.98;101092.91;4966242;28;20039;-60
2022/10/25 03:17:34;;;;;;;6.65;0.88;;;;;;;21.47;50.28;101094.56;4996979;28;20045;-60
2022/10/25 03:20:00;;;;;;;3.17;0.63;;;;;;;21.47;50.50;101094.56;4965264;28;20565;-61
2022/10/25 03:22:25;;;;;;;3.50;0.68;;;;;;;21.50;49.82;101106.97;4983126;28;20095;-60
2022/10/25 03:24:50;;;;;;;5.03;0.52;;;;;;;21.52;50.21;101109.50;4982152;28;20105;-60
2022/10/25 03:27:16;;;;;;;11.00;0.85;;;;;;;21.54;50.02;101107.44;4982179;28;20039;-60
2022/10/25 03:29:42;;;;;;;2.25;1.33;;;;;;;21.54;50.40;101115.59;4966631;28;20028;-60
2022/10/25 03:32:08;;;;;;;5.35;0.85;;;;;;;21.53;49.77;101117.47;4981475;28;20088;-60
2022/10/25 03:34:33;;;;;;;3.17;0.57;;;;;;;21.52;50.24;101120.41;4967956;29;20023;-60
2022/10/25 03:36:59;;;;;;;3.30;1.02;;;;;;;21.49;50.57;101118.94;4966640;28;20050;-60
2022/10/25 03:39:24;;;;;;;3.83;0.65;;;;;;;21.51;50.91;101129.63;4966958;28;20409;-60
2022/10/25 03:41:50;;;;;;;6.03;0.98;;;;;;;21.47;50.47;101127.28;4980717;28;20464;-60
2022/10/25 03:44:16;;;;;;;5.80;1.00;;;;;;;21.46;50.93;101130.22;4966511;28;20047;-60
2022/10/25 03:46:41;;;;;;;3.17;0.77;;;;;;;21.43;50.25;101123.28;4965665;29;20039;-61
2022/10/25 03:49:07;;;;;;;6.35;0.73;;;;;;;21.45;49.94;101129.38;4981778;28;20036;-61
2022/10/25 03:51:32;;;;;;;8.50;0.85;;;;;;;21.45;50.81;101129.38;4982325;28;20035;-61
2022/10/25 03:53:57;;;;;;;3.63;0.73;;;;;;;21.45;50.76;101129.38;4981156;28;20493;-60
2022/10/25 03:56:23;;;;;;;2.58;0.60;;;;;;;21.42;50.18;101140.66;4965533;28;20027;-60
2022/10/25 03:58:48;;;;;;;1.38;0.68;;;;;;;21.41;50.44;101130.78;4964440;29;20520;-63
2022/10/25 04:01:14;;;;;;;3.67;1.10;;;;;;;21.44;50.67;101144.03;4972392;28;20118;-63
2022/10/25 04:03:39;;;;;;;2.65;0.70;;;;;;;21.44;50.15;101143.16;4956959;28;20401;-63
2022/10/25 04:06:05;;;;;;;1.65;0.75;;;;;;;21.43;50.59;101138.78;4972482;28;20042;-63
2022/10/25 04:08:30;;;;;;;2.42;0.80;;;;;;;21.45;50.04;101139.41;4972080;28;20397;-63
2022/10/25 04:10:55;;;;;;;5.15;1.10;;;;;;;21.46;49.95;101150.16;4972542;28;20027;-63
2022/10/25 04:13:21;;;;;;;5.57;0.55;;;;;;;21.45;50.03;101153.91;4971818;28;20035;-63
2022/10/25 04:15:46;;;;;;;3.65;0.60;;;;;;;21.48;50.48;101156.25;4971874;28;20119;-63
2022/10/25 04:18:11;;;;;;;3.72;0.73;;;;;;;21.50;49.89;101152.50;4972067;28;20058;-63
2022/10/25 04:20:37;;;;;;;4.18;1.70;;;;;;;21.51;51.02;101154.16;4971898;28;20042;-64
2022/10/25 04:23:02;;;;;;;3.92;0.68;;;;;;;21.51;50.70;101151.44;4971761;28;20193;-63
2022/10/25 04:25:28;;;;;;;2.35;0.88;;;;;;;21.50;50.48;101144.31;4972284;28;20042;-63
2022/10/25 04:27:53;;;;;;;5.85;0.75;;;;;;;21.51;50.46;101146.81;4971813;28;20409;-64
2022/10/25 04:30:19;;;;;;;2.58;0.75;;;;;;;21.53;49.78;101142.03;4955659;29;20049;-63
2022/10/25 04:32:44;;;;;;;5.03;1.10;;;;;;;21.52;50.35;101155.84;4955714;28;20043;-63
2022/10/25 04:35:11;;;;;;;4.10;0.70;;;;;;;21.52;50.31;101158.59;4955430;28;20023;-63
2022/10/25 04:37:37;;;;;;;6.05;1.23;;;;;;;21.52;50.57;101161.31;4971984;28;20027;-63
2022/10/25 04:40:03;;;;;;;2.05;0.60;;;;;;;21.49;50.20;101159.81;4955414;29;20043;-63
2022/10/25 04:42:28;;;;;;;1.77;0.70;;;;;;;21.47;50.03;101157.28;4955307;29;20557;-63
2022/10/25 04:44:53;;;;;;;2.90;0.70;;;;;;;21.48;50.21;101156.25;4955697;29;20405;-63
2022/10/25 04:47:19;;;;;;;2.90;0.68;;;;;;;21.48;49.78;101156.25;4939434;28;20038;-63
2022/10/25 04:49:44;;;;;;;7.97;1.75;;;;;;;21.50;50.21;101163.41;4971877;28;20043;-64
2022/10/25 04:52:09;;;;;;;1.80;0.60;;;;;;;21.48;49.98;101161.69;4971471;28;20031;-64
2022/10/25 04:54:35;;;;;;;5.38;0.88;;;;;;;21.48;50.76;101169.88;4956561;28;20039;-63
2022/10/25 04:57:00;;;;;;;5.70;0.63;;;;;;;21.45;50.20;101162.06;4956459;28;20115;-63
2022/10/25 04:59:25;;;;;;;12.00;0.77;;;;;;;21.46;50.47;101169.22;4971389;28;20563;-63
2022/10/25 05:01:51;;;;;;;3.90;0.80;;;;;;;21.45;50.00;101161.22;4971602;28;20121;-63
2022/10/25 05:04:16;;;;;;;1.45;0.82;;;;;;;21.44;49.80;101165.81;4956347;28;20086;-64
2022/10/25 05:06:41;;;;;;;4.60;1.45;;;;;;;21.40;50.14;101167.25;4955214;29;20035;-63
2022/10/25 05:09:07;;;;;;;4.13;0.77;;;;;;;21.41;50.47;101181.75;4956346;28;20042;-63
2022/10/25 05:11:32;;;;;;;2.15;0.52;;;;;;;21.37;50.40;101181.28;4956277;28;20043;-63
2022/10/25 05:13:58;;;;;;;3.42;0.70;;;;;;;21.36;49.91;101182.28;4956527;29;20027;-63
2022/10/25 05:16:24;;;;;;;2.08;0.52;;;;;;;21.33;50.15;101174.50;4970243;28;20046;-64
2022/10/25 05:18:53;;;;;;;4.05;0.85;;;;;;;21.32;50.15;101178.28;4970903;28;20127;-64
2022/10/25 05:21:19;;;;;;;3.67;0.68;;;;;;;21.30;50.48;101180.31;4954820;29;20508;-63
2022/10/25 05:23:44;;;;;;;7.20;1.58;;;;;;;21.31;50.56;101178.44;4970757;28;20122;-63
2022/10/25 05:26:17;;;;;;;3.40;0.73;;;;;;;21.31;50.12;101190.19;4954622;28;20031;-63
2022/10/25 05:28:44;;;;;;;4.97;0.85;;;;;;;21.32;50.01;101199.22;4971207;28;20020;-63
2022/10/25 05:31:17;;;;;;;6.20;0.75;;;;;;;21.29;50.40;101195.00;4954789;29;20032;-63
2022/10/25 05:33:44;;;;;;;3.38;0.77;;;;;;;21.29;50.71;101196.88;4970617;28;20126;-63
2022/10/25 05:36:10;;;;;;;1.67;0.80;;;;;;;21.28;49.79;101198.75;4970560;28;20050;-63
2022/10/25 05:38:35;;;;;;;6.15;1.40;;;;;;;21.28;49.99;101201.47;4973169;28;20492;-64
2022/10/25 05:41:00;;;;;;;4.72;0.75;;;;;;;21.28;49.61;101197.91;4973428;28;20087;-63
2022/10/25 05:43:26;;;;;;;4.93;0.70;;;;;;;21.28;50.67;101201.47;4973800;28;20038;-64
2022/10/25 05:45:52;;;;;;;2.50;0.70;;;;;;;21.25;49.71;101207.31;4973701;28;20039;-64
2022/10/25 05:48:17;;;;;;;2.03;0.82;;;;;;;21.25;50.23;101210.03;5006155;28;20555;-65
2022/10/25 05:50:43;;;;;;;2.90;0.98;;;;;;;21.23;49.63;101209.38;4957491;28;20054;-63
2022/10/25 05:53:09;;;;;;;5.90;1.33;;;;;;;21.24;50.52;101205.63;4973624;28;20396;-63
2022/10/25 05:55:34;;;;;;;4.10;1.15;;;;;;;21.25;50.71;101211.91;4975010;28;20038;-63
2022/10/25 05:57:59;;;;;;;4.95;0.52;;;;;;;21.25;50.56;101226.38;4973483;28;20118;-62
2022/10/25 06:00:25;;;;;;;5.10;0.63;;;;;;;21.23;50.69;101217.56;4957224;28;20555;-64
2022/10/25 06:02:50;;;;;;;3.28;0.98;;;;;;;21.23;50.51;101222.16;4973327;28;20039;-64
2022/10/25 06:05:16;;;;;;;1.42;0.82;;;;;;;21.26;50.05;101222.63;4973315;28;20090;-64
2022/10/25 06:07:41;;;;;;;4.00;1.20;;;;;;;21.26;50.18;101222.63;4973616;28;20038;-64
2022/10/25 06:10:07;;;;;;;2.35;0.70;;;;;;;21.27;50.52;101237.94;4973157;28;20031;-64
2022/10/25 06:12:32;;;;;;;2.17;0.70;;;;;;;21.26;49.66;101236.25;4973178;28;20041;-64
2022/10/25 06:14:58;;;;;;;7.32;1.05;;;;;;;21.27;50.02;101240.66;4973118;28;20049;-64
2022/10/25 06:17:23;;;;;;;1.55;0.68;;;;;;;21.25;49.71;101242.72;4973008;28;20034;-64
2022/10/25 06:19:48;;;;;;;5.20;0.75;;;;;;;21.27;50.33;101245.28;4974639;28;20395;-64
2022/10/25 06:22:14;;;;;;;6.47;0.75;;;;;;;21.24;50.03;101246.50;4972927;28;20109;-64
2022/10/25 06:24:39;;;;;;;5.32;1.30;;;;;;;21.25;50.02;101247.34;4974255;28;20046;-64
2022/10/25 06:27:05;;;;;;;2.35;0.95;;;;;;;21.23;50.65;101249.41;4972806;28;20089;-64
2022/10/25 06:29:30;;;;;;;3.30;0.75;;;;;;;21.23;50.25;101250.25;4972882;28;20066;-64
2022/10/25 06:31:55;;;;;;;4.78;1.15;;;;;;;21.25;49.84;101259.09;4989482;28;20058;-64
2022/10/25 06:34:21;;;;;;;2.58;0.75;;;;;;;21.28;50.27;101266.03;4972815;28;20027;-64
2022/10/25 06:36:46;;;;;;;3.00;0.70;;;;;;;21.28;50.08;101269.63;4972713;28;20046;-64
2022/10/25 06:39:12;;;;;;;5.35;0.93;;;;;;;21.31;50.75;101269.25;4974071;28;20460;-64
2022/10/25 06:41:37;;;;;;;4.07;0.90;;;;;;;21.33;50.16;101272.63;4973846;28;20061;-64
2022/10/25 06:44:03;;;;;;;3.72;0.80;;;;;;;21.31;50.35;101271.97;4973861;28;20088;-63
2022/10/25 06:46:31;;;;;;;3.88;0.73;;;;;;;21.34;49.68;101284.38;4956995;28;20058;-64
2022/10/25 06:48:58;;;;;;;5.75;0.90;;;;;;;21.34;50.61;101285.22;4988392;28;20035;-64
2022/10/25 06:51:24;;;;;;;7.80;1.00;;;;;;;21.34;50.17;101290.66;4974102;28;20524;-64
2022/10/25 06:53:58;;;;;;;6.18;1.00;;;;;;;21.31;50.63;101288.31;4972680;28;20069;-64
2022/10/25 06:56:24;;;;;;;2.85;0.98;;;;;;;21.31;50.29;101295.66;4972726;28;20027;-64
2022/10/25 06:58:50;;;;;;;2.25;0.82;;;;;;;21.28;49.79;101285.13;4974266;28;20118;-64
2022/10/25 07:01:18;;;;;;;4.88;0.60;;;;;;;21.30;49.77;101286.63;4973861;28;20118;-64
2022/10/25 07:03:44;;;;;;;4.72;1.27;;;;;;;21.32;50.37;101295.47;4972406;28;20117;-64
2022/10/25 07:06:13;;;;;;;5.00;0.90;;;;;;;21.35;50.50;101300.56;4972611;28;20027;-64
2022/10/25 07:08:41;;;;;;;1.80;0.82;;;;;;;21.37;50.01;101311.25;4972424;28;20046;-65
2022/10/25 07:11:08;;;;;;;4.60;1.23;;;;;;;21.38;49.55;101300.16;4948142;28;20019;-64
2022/10/25 07:13:34;;;;;;;5.05;1.05;;;;;;;21.42;50.00;101304.19;5003350;28;20031;-65
2022/10/25 07:16:03;;;;;;;6.68;0.98;;;;;;;21.39;50.10;101293.69;4956359;28;20527;-65
2022/10/25 07:18:30;;;;;;;4.15;0.90;;;;;;;21.47;49.63;101304.47;4949397;28;20062;-64
2022/10/25 07:21:07;;;;;;;4.13;1.55;;;;;;;21.47;50.02;101298.16;4976874;28;20038;-64
2022/10/25 07:23:32;;;;;;;4.88;0.80;;;;;;;21.50;49.61;101305.97;5004659;28;20086;-64
2022/10/25 07:25:58;;;;;;;2.13;0.65;;;;;;;21.51;49.52;101313.13;4972870;28;20034;-65
2022/10/25 07:28:25;;;;;;;3.10;0.80;;;;;;;21.52;50.05;101314.00;4972304;28;20526;-64
2022/10/25 07:30:50;;;;;;;4.57;0.90;;;;;;;21.51;49.43;101318.59;4956389;28;20114;-63
2022/10/25 07:33:17;;;;;;;3.30;0.95;;;;;;;21.53;49.85;101316.50;4972300;28;20122;-63
2022/10/25 07:35:45;;;;;;;2.70;0.70;;;;;;;21.52;50.38;101331.19;4956345;28;20050;-64
2022/10/25 07:38:11;;;;;;;7.40;1.17;;;;;;;21.55;50.01;101325.38;4972468;28;20037;-63
2022/10/25 07:40:36;;;;;;;12.25;1.20;;;;;;;21.56;49.41;101331.66;4960177;28;20055;-63
2022/10/25 07:43:01;;;;;;;1.55;0.90;;;;;;;21.59;50.20;101326.66;4975708;28;20027;-64
2022/10/25 07:45:27;;;;;;;7.93;0.90;;;;;;;21.64;49.48;101329.66;4975536;28;20122;-63
2022/10/25 07:47:52;;;;;;;2.78;0.80;;;;;;;21.68;49.66;101335.59;4975637;28;20505;-63
2022/10/25 07:50:21;;;;;;;3.58;0.80;;;;;;;21.71;49.49;101332.50;4943498;28;20023;-63
2022/10/25 07:52:46;;;;;;;6.00;0.80;;;;;;;21.83;48.80;101344.63;4992524;28;20404;-63
2022/10/25 07:55:12;;;;;;;7.43;0.90;;;;;;;22.00;48.63;101335.19;4959126;28;20035;-63
2022/10/25 07:57:38;;;;;;;6.43;0.82;;;;;;;22.10;49.04;101327.56;4975546;28;20042;-63
2022/10/25 08:00:07;;;;;;;11.35;1.30;;;;;;;22.30;48.87;101342.31;4959542;28;20069;-63
2022/10/25 08:02:33;;;;;;;3.80;0.68;;;;;;;22.48;48.31;101333.66;4975354;28;20489;-63
2022/10/25 08:04:59;;;;;;;6.43;0.80;;;;;;;22.69;49.00;101335.59;4975808;28;20057;-63
2022/10/25 08:07:24;;;;;;;6.68;0.60;;;;;;;22.89;47.89;101342.91;4959196;28;20039;-63
2022/10/25 08:09:49;;;;;;;1.50;0.73;;;;;;;23.11;48.16;101341.88;4975353;28;20170;-63
2022/10/25 08:12:15;;;;;;;2.03;0.60;;;;;;;23.23;47.70;101333.94;4975287;28;20039;-63
2022/10/25 08:14:40;;;;;;;2.67;0.90;;;;;;;23.44;47.19;101342.13;4976460;28;20035;-63
2022/10/25 08:17:06;;;;;;;2.40;0.77;;;;;;;23.36;48.48;101349.59;4959537;28;20412;-63
2022/10/25 08:19:31;;;;;;;3.42;0.70;;;;;;;23.34;48.07;101351.69;4959353;28;20050;-63
2022/10/25 08:21:56;;;;;;;2.55;0.55;;;;;;;23.39;48.01;101355.56;4959006;28;20030;-64
2022/10/25 08:24:22;;;;;;;2.72;0.88;;;;;;;23.55;48.04;101344.28;4975062;28;20085;-64
2022/10/25 08:26:47;;;;;;;3.92;0.82;;;;;;;23.97;47.17;101350.63;4975001;28;20039;-63
2022/10/25 08:29:12;;;;;;;7.45;1.10;;;;;;;24.30;46.75;101351.63;4975020;28;20111;-64
2022/10/25 08:31:38;;;;;;;2.05;0.80;;;;;;;24.56;46.42;101338.00;4975360;28;20023;-63
2022/10/25 08:34:03;;;;;;;1.00;0.47;;;;;;;24.54;46.49;101344.75;4974868;28;20031;-64
2022/10/25 08:36:28;;;;;;;3.22;0.65;;;;;;;24.52;46.93;101353.16;4976168;28;20521;-63
2022/10/25 08:38:54;;;;;;;4.78;0.70;;;;;;;24.58;46.90;101354.22;4958585;28;20392;-63
2022/10/25 08:41:19;;;;;;;5.88;1.13;;;;;;;24.52;47.04;101357.78;4974647;28;20058;-63
2022/10/25 08:43:50;;;;;;;4.20;0.93;;;;;;;24.41;47.15;101363.84;4974864;28;20027;-63
2022/10/25 08:46:23;;;;;;;4.43;1.00;;;;;;;24.27;47.00;101355.63;4974584;28;20129;-63
2022/10/25 08:49:04;;;;;;;3.25;0.73;;;;;;;24.15;47.33;101373.66;4958582;28;20062;-64
2022/10/25 08:51:35;;;;;;;4.47;0.70;;;;;;;24.11;46.75;101371.56;4957456;28;20030;-63
2022/10/25 08:54:04;;;;;;;9.02;1.20;;;;;;;24.06;47.38;101379.50;4974692;28;20513;-64
2022/10/25 08:56:29;;;;;;;4.93;0.43;;;;;;;24.01;46.61;101374.63;4974572;28;20035;-64
2022/10/25 08:58:57;;;;;;;2.58;0.38;;;;;;;23.93;47.08;101376.69;4974990;28;20420;-64
2022/10/25 09:01:28;;;;;;;7.90;0.82;;;;;;;23.90;46.96;101371.66;4974424;28;20102;-63
2022/10/25 09:03:53;;;;;;;6.78;0.98;;;;;;;23.78;46.62;101374.94;4974400;28;20062;-63
2022/10/25 09:06:32;;;;;;;3.58;0.70;;;;;;;23.73;46.42;101376.56;4975591;28;20039;-63
2022/10/25 09:08:57;;;;;;;3.45;0.70;;;;;;;23.69;47.31;101378.91;4975397;28;20436;-63
2022/10/25 09:11:49;;;;;;;7.13;1.20;;;;;;;23.66;46.66;101372.97;4975362;28;20034;-63
2022/10/25 09:14:29;;;;;;;3.45;0.77;;;;;;;23.63;47.22;101387.91;4973961;28;20023;-63
2022/10/25 09:17:06;;;;;;;8.25;1.00;;;;;;;23.56;47.01;101384.25;4975655;28;20395;-63
2022/10/25 09:19:34;;;;;;;3.97;0.80;;;;;;;23.58;46.46;101390.41;4974250;28;20043;-63
2022/10/25 09:22:02;;;;;;;4.60;0.82;;;;;;;23.63;46.58;101385.16;4957717;28;20181;-63
2022/10/25 09:24:38;;;;;;;3.30;1.23;;;;;;;23.71;46.79;101384.16;4957759;28;20031;-63
2022/10/25 09:27:05;;;;;;;1.63;0.85;;;;;;;23.82;46.28;101393.69;4973983;28;20105;-63
2022/10/25 09:29:38;;;;;;;3.55;0.82;;;;;;;23.75;46.56;101394.50;4975028;28;20047;-63
2022/10/25 09:32:11;;;;;;;3.13;1.00;;;;;;;23.80;46.30;101401.25;4949076;28;20042;-63
2022/10/25 09:34:36;;;;;;;;;;;;;;;23.98;46.35;101401.59;4989324;28;20089;-63
2022/10/25 09:37:11;;;;;;;2.72;1.08;;;;;;;24.24;45.63;101396.25;5006308;28;20007;-63
2022/10/25 09:39:40;;;;;;;2.58;1.15;;;;;;;24.43;45.53;101400.94;4957377;28;20108;-63
2022/10/25 09:42:17;;;;;;;2.72;1.10;;;;;;;24.35;45.45;101406.63;4957270;28;20531;-63
2022/10/25 09:44:49;;;;;;;3.60;1.30;;;;;;;24.23;46.45;101409.09;4973738;28;20039;-63
2022/10/25 09:47:28;;;;;;;4.97;1.17;;;;;;;24.18;46.64;101405.28;4957496;28;20030;-63
2022/10/25 09:50:02;;;;;;;2.35;0.85;;;;;;;24.11;45.99;101416.22;4975462;28;20027;-64
2022/10/25 09:52:31;;;;;;;7.55;1.10;;;;;;;24.05;46.34;101419.72;4974889;28;20500;-63
2022/10/25 09:55:13;;;;;;;5.25;1.27;;;;;;;23.96;45.77;101420.06;4973230;28;20035;-63
2022/10/25 09:57:38;;;;;;;4.13;0.75;;;;;;;23.87;46.82;101418.56;4973437;28;20039;-63
2022/10/25 10:00:04;;;;;;;4.03;1.50;;;;;;;23.80;46.24;101417.69;4957162;28;20039;-63
2022/10/25 10:02:29;;;;;;;3.30;1.05;;;;;;;23.82;46.01;101412.84;4972989;28;20034;-63
2022/10/25 10:04:55;;;;;;;6.38;1.00;;;;;;;23.99;45.85;101417.78;4974854;28;20037;-63
2022/10/25 10:07:34;;;;;;;5.18;1.20;;;;;;;24.11;45.56;101416.22;4957086;28;20449;-63
2022/10/25 10:10:02;;;;;;;3.47;0.90;;;;;;;24.56;45.23;101413.84;4972962;28;20051;-63
2022/10/25 10:12:32;;;;;;;5.30;0.80;;;;;;;24.68;45.15;101418.53;4973063;28;20066;-63
2022/10/25 10:15:00;;;;;;;3.35;1.15;;;;;;;24.72;45.82;101422.53;4973326;28;20042;-63
2022/10/25 10:17:28;;;;;;;5.07;1.13;;;;;;;24.69;45.73;101413.88;4974309;28;20101;-64
2022/10/25 10:20:07;;;;;;;2.85;0.63;;;;;;;24.67;45.12;101416.00;4973558;28;20400;-64
2022/10/25 10:22:42;;;;;;;5.38;1.25;;;;;;;24.67;45.59;101422.31;4973220;28;20066;-62
2022/10/25 10:25:14;;;;;;;6.95;1.00;;;;;;;24.65;45.32;101418.94;4956836;28;20047;-63
2022/10/25 10:27:40;;;;;;;7.30;0.75;;;;;;;24.71;45.38;101423.59;4973080;28;20440;-63
2022/10/25 10:30:07;;;;;;;6.65;0.77;;;;;;;25.42;44.05;101427.50;4974140;28;20034;-63
2022/10/25 10:32:37;;;;;;;3.38;0.90;;;;;;;25.81;43.94;101417.56;4956978;28;20093;-63
2022/10/25 10:35:06;;;;;;;1.95;0.82;;;;;;;26.66;43.09;101409.03;4957026;28;20027;-63
2022/10/25 10:37:32;;;;;;;2.63;0.82;;;;;;;27.46;42.24;101404.66;4973238;28;20073;-64
2022/10/25 10:40:07;;;;;;;1.30;0.90;;;;;;;28.07;41.20;101408.28;4972801;28;20049;-64
2022/10/25 10:42:34;;;;;;;3.33;0.75;;;;;;;28.59;40.69;101400.38;4974023;28;20054;-65
2022/10/25 10:45:11;;;;;;;4.03;0.70;;;;;;;28.61;41.30;101403.78;4974087;28;20114;-64
2022/10/25 10:47:48;;;;;;;5.13;1.40;;;;;;;28.73;41.09;101408.28;4973934;28;20054;-65
2022/10/25 10:50:19;;;;;;;2.83;0.90;;;;;;;28.14;41.32;101402.69;4972625;28;20030;-65
2022/10/25 10:52:45;;;;;;;3.75;1.20;;;;;;;27.81;41.69;101411.28;4974238;28;20069;-64
2022/10/25 10:55:28;;;;;;;2.13;0.63;;;;;;;27.98;41.53;101408.78;4972467;28;20455;-65
2022/10/25 10:57:56;;;;;;;2.13;0.68;;;;;;;27.65;42.08;101404.47;4973959;28;20042;-64
2022/10/25 11:00:27;;;;;;;7.10;0.95;;;;;;;27.40;42.55;101411.03;4972505;28;20085;-64
2022/10/25 11:02:53;;;;;;;2.30;0.68;;;;;;;27.11;42.66;101402.38;4972612;28;20505;-64
2022/10/25 11:05:30;;;;;;;10.20;0.90;;;;;;;26.83;42.93;101399.19;4972549;28;20057;-64
2022/10/25 11:08:19;;;;;;;2.03;0.57;;;;;;;26.63;43.13;101417.72;4973024;28;20114;-64
2022/10/25 11:10:44;;;;;;;3.83;0.88;;;;;;;26.42;43.24;101413.38;4948687;28;20146;-63
2022/10/25 11:13:12;;;;;;;2.45;0.60;;;;;;;26.48;42.85;101420.75;4956524;28;20035;-63
2022/10/25 11:16:07;;;;;;;2.33;0.70;;;;;;;26.96;42.21;101399.13;4976518;28;20034;-64
2022/10/25 11:19:09;;;;;;;3.88;0.50;;;;;;;27.53;40.88;101408.19;4976295;28;20067;-64
2022/10/25 11:22:14;;;;;;;1.60;0.80;;;;;;;27.51;41.14;101413.94;4977473;28;20592;-64
2022/10/25 11:24:54;;;;;;;3.22;0.82;;;;;;;27.46;42.13;101412.91;4976183;28;20447;-64
2022/10/25 11:27:40;;;;;;;2.42;0.70;;;;;;;27.47;41.79;101418.19;4976080;28;20073;-64
2022/10/25 11:30:13;;;;;;;2.30;0.57;;;;;;;27.13;41.83;101418.69;4976086;28;20105;-64
2022/10/25 11:32:57;;;;;;;0.75;0.40;;;;;;;27.02;41.26;101408.38;4976068;28;20023;-64